Historique des mesures à Cassis (13260), France
Quotidien Résumé Mars 5, 2018 Unités:  Métrique    US   Métrique/US
« Précédent (Jour)
Suivant (Jour) »
Quotidien Hebdomadaire Mensuel Annuel Période au choix
  Maximum: Minimum: Moyenne:
Température: TemperatureC °C 9.9 °C 10.9 °C
Point de rosée: DewpointC °C 6.9 °C 7.2 °C
Humidité: Humidity % 69 % 74 %
Vitesse du vent: 0 km/h 0 km/h 5.1 km/h
Rafales: 0 km/h - -
Vent:- - ESE
Pression: PressurehPa hPa 987.7 hPa -
Précipitations: 5.1 mm    
Historical Graphs
 
 
Mesures pour : Mars 5, 2018
Heure Temperature Point de rosée Pression Vent Vitesse du vent Rafales Humidité Pluie (par heure) Conditions
TemperatureC °C DewpointC °C PressurehPa hPa Calm     Humidity % HourlyPrecipMM mm SoftwareType W/m2
00:12 11.8 °C 7.9 °C 995.1 hPa ESE 5.6 km/h 5.6 km/h 77 % 0.0 mm open2300-1.11 W/m2
01:12 11.6 °C 7.5 °C 994.8 hPa ENE 5.6 km/h 5.6 km/h 76 % 0.0 mm open2300-1.11 W/m2
02:12 11.4 °C 7.5 °C 994.8 hPa Calm   5.1 km/h 77 % 0.0 mm open2300-1.11 W/m2
03:12 11.3 °C 7.4 °C 993.8 hPa Calm     77 % 0.0 mm open2300-1.11 W/m2
04:12 11.2 °C 6.9 °C 993.5 hPa Calm     75 % 0.0 mm open2300-1.11 W/m2
05:12 11.0 °C 7.1 °C 992.4 hPa East 5.1 km/h 5.1 km/h 77 % 0.0 mm open2300-1.11 W/m2
06:12 10.6 °C 7.1 °C 991.4 hPa South 9.8 km/h 12.2 km/h 79 % 0.0 mm open2300-1.11 W/m2
07:12 10.6 °C 6.9 °C 991.8 hPa SE 10.9 km/h 10.9 km/h 78 % 0.0 mm open2300-1.11 W/m2
08:12 10.9 °C 7.1 °C 991.8 hPa ESE 12.2 km/h 17.4 km/h 77 % 0.0 mm open2300-1.11 W/m2
09:12 11.5 °C 7.4 °C 991.4 hPa East 6.9 km/h 6.9 km/h 76 % 0.0 mm open2300-1.11 W/m2
10:12 12.7 °C 7.9 °C 991.4 hPa ESE 11.6 km/h 11.6 km/h 73 % 0.0 mm open2300-1.11 W/m2
11:12 13.8 °C 8.4 °C 990.7 hPa ESE 11.6 km/h 17.9 km/h 70 % 0.0 mm open2300-1.11 W/m2
12:12 13.8 °C 8.2 °C 990.4 hPa SE 5.6 km/h 10.3 km/h 69 % 0.0 mm open2300-1.11 W/m2
13:12 12.9 °C 7.6 °C 989.7 hPa East 5.6 km/h 15.6 km/h 70 % 0.0 mm open2300-1.11 W/m2
14:12 11.8 °C 8.3 °C 989.1 hPa SE 4.7 km/h 4.7 km/h 79 % 0.5 mm open2300-1.11 W/m2
15:12 11.6 °C 7.9 °C 988.4 hPa ESE 2.3 km/h 2.9 km/h 78 % 0.0 mm open2300-1.11 W/m2
16:12 11.5 °C 8.4 °C 988.0 hPa SE 1.8 km/h 2.3 km/h 81 % 0.5 mm open2300-1.11 W/m2
17:12 11.2 °C 7.7 °C 987.7 hPa Calm   4.7 km/h 79 % 0.0 mm open2300-1.11 W/m2
18:12 10.4 °C 7.1 °C 987.7 hPa SE 4.7 km/h 12.7 km/h 80 % 0.5 mm open2300-1.11 W/m2
19:12 10.4 °C 7.3 °C 988.4 hPa ESE 5.1 km/h 5.1 km/h 81 % 0.0 mm open2300-1.11 W/m2
20:12 10.6 °C 7.1 °C 988.0 hPa ESE 8 km/h 12.7 km/h 79 % 0.0 mm open2300-1.11 W/m2
21:11 10.1 °C 7.3 °C 988.0 hPa North 6.9 km/h 6.9 km/h 83 % 2.0 mm open2300-1.11 W/m2
22:12 10.1 °C 7.3 °C 988.0 hPa Calm   8.9 km/h 83 % 1.0 mm open2300-1.11 W/m2
23:12 9.9 °C 7.3 °C 987.7 hPa South 5.1 km/h 8.9 km/h 84 % 0.5 mm open2300-1.11 W/m2
Observations météo à CASSIS
WU-History script by Weather Underground - 1 mb